createdAt,value
2017-11-04T00:01:18.994Z,7.90
2017-11-04T00:03:47.187Z,7.90
2017-11-04T00:06:14.631Z,7.90
2017-11-04T00:08:42.810Z,7.80
2017-11-04T00:11:10.992Z,7.80
2017-11-04T00:13:39.171Z,7.90
2017-11-04T00:16:06.583Z,7.90
2017-11-04T00:18:34.001Z,7.90
2017-11-04T00:21:02.649Z,7.90
2017-11-04T00:23:31.757Z,7.90
2017-11-04T00:25:59.944Z,7.90
2017-11-04T00:28:27.352Z,7.80
2017-11-04T00:30:54.774Z,7.80
2017-11-04T00:33:22.228Z,7.80
2017-11-04T00:35:49.643Z,7.80
2017-11-04T00:38:17.823Z,7.80
2017-11-04T00:40:47.011Z,7.80
2017-11-04T00:43:14.422Z,7.80
2017-11-04T00:45:41.831Z,7.80
2017-11-04T00:48:09.263Z,7.80
2017-11-04T00:50:36.671Z,7.70
2017-11-04T00:53:04.079Z,7.70
2017-11-04T00:55:32.409Z,7.70
2017-11-04T00:57:59.876Z,7.60
2017-11-04T01:00:27.271Z,7.60
2017-11-04T01:02:55.481Z,7.70
2017-11-04T01:05:22.891Z,7.60
2017-11-04T01:07:50.419Z,7.60
2017-11-04T01:10:17.839Z,7.60
2017-11-04T01:12:45.244Z,7.50
2017-11-04T01:15:12.676Z,7.50
2017-11-04T01:17:40.083Z,7.50
2017-11-04T01:20:08.262Z,7.50
2017-11-04T01:22:36.459Z,7.50
2017-11-04T01:25:03.870Z,7.40
2017-11-04T01:27:31.316Z,7.50
2017-11-04T01:29:58.742Z,7.50
2017-11-04T01:32:26.195Z,7.50
2017-11-04T01:34:53.610Z,7.50
2017-11-04T01:37:21.806Z,7.50
2017-11-04T01:39:49.221Z,7.50
2017-11-04T01:42:16.631Z,7.50
2017-11-04T01:44:44.053Z,7.50
2017-11-04T01:47:12.227Z,7.40
2017-11-04T01:49:40.407Z,7.40
2017-11-04T01:52:08.613Z,7.50
2017-11-04T01:54:36.058Z,7.40
2017-11-04T01:57:04.619Z,7.40
2017-11-04T01:59:33.730Z,7.50
2017-11-04T02:02:01.134Z,7.50
2017-11-04T02:04:28.555Z,7.40
2017-11-04T02:06:55.970Z,7.40
2017-11-04T02:09:24.781Z,7.40
2017-11-04T02:11:52.214Z,7.40
2017-11-04T02:14:19.625Z,7.40
2017-11-04T02:16:47.035Z,7.30
2017-11-04T02:19:15.213Z,7.30
2017-11-04T02:21:43.391Z,7.30
2017-11-04T02:24:10.804Z,7.30
2017-11-04T02:26:38.214Z,7.40
2017-11-04T02:29:05.640Z,7.30
2017-11-04T02:31:34.746Z,7.30
2017-11-04T02:34:02.923Z,7.20
2017-11-04T02:36:31.100Z,7.30
2017-11-04T02:38:58.518Z,7.20
2017-11-04T02:41:25.923Z,7.20
2017-11-04T02:43:53.333Z,7.20
2017-11-04T02:46:20.743Z,7.20
2017-11-04T02:48:48.156Z,7.20
2017-11-04T02:51:16.342Z,7.20
2017-11-04T02:53:44.516Z,7.20
2017-11-04T02:56:12.707Z,7.30
2017-11-04T02:58:40.115Z,7.20
2017-11-04T03:01:07.535Z,7.20
2017-11-04T03:03:36.084Z,7.30
2017-11-04T03:06:05.178Z,7.30
2017-11-04T03:08:33.367Z,7.20
2017-11-04T03:11:01.283Z,7.20
2017-11-04T03:13:28.697Z,7.20
2017-11-04T03:15:56.119Z,7.20
2017-11-04T03:18:24.298Z,7.20
2017-11-04T03:20:52.484Z,7.20
2017-11-04T03:23:20.667Z,7.20
2017-11-04T03:25:48.081Z,7.20
2017-11-04T03:28:15.487Z,7.20
2017-11-04T03:30:42.963Z,7.20
2017-11-04T03:33:10.362Z,7.20
2017-11-04T03:35:38.538Z,7.20
2017-11-04T03:38:06.864Z,7.20
2017-11-04T03:40:34.275Z,7.20
2017-11-04T03:43:02.463Z,7.10
2017-11-04T03:45:30.690Z,7.10
2017-11-04T03:47:58.099Z,7.10
2017-11-04T03:50:25.518Z,7.10
2017-11-04T03:52:52.935Z,7.00
2017-11-04T03:55:20.390Z,7.00
2017-11-04T03:57:49.738Z,7.00
2017-11-04T04:00:17.926Z,6.90
2017-11-04T04:02:46.095Z,6.90
2017-11-04T04:05:13.520Z,6.90
2017-11-04T04:07:40.931Z,6.90
2017-11-04T04:10:08.362Z,6.90
2017-11-04T04:12:37.472Z,6.80
2017-11-04T04:15:05.644Z,6.80
2017-11-04T04:17:33.823Z,6.80
2017-11-04T04:20:01.243Z,6.80
2017-11-04T04:22:28.669Z,6.90
2017-11-04T04:24:56.075Z,6.90
2017-11-04T04:27:24.256Z,6.90
2017-11-04T04:29:51.686Z,6.90
2017-11-04T04:32:19.110Z,6.90
2017-11-04T04:34:46.550Z,6.90
2017-11-04T04:37:13.947Z,6.90
2017-11-04T04:39:41.372Z,6.90
2017-11-04T04:42:08.788Z,6.90
2017-11-04T04:44:37.883Z,6.90
2017-11-04T04:47:05.303Z,6.80
2017-11-04T04:49:32.715Z,6.80
2017-11-04T04:52:00.134Z,6.80
2017-11-04T04:54:27.542Z,6.80
2017-11-04T04:56:54.963Z,6.80
2017-11-04T04:59:23.155Z,6.80
2017-11-04T05:01:50.575Z,6.80
2017-11-04T05:04:17.983Z,6.80
2017-11-04T05:06:45.398Z,6.80
2017-11-04T05:09:13.585Z,6.80
2017-11-04T05:11:41.017Z,6.80
2017-11-04T05:14:09.202Z,6.70
2017-11-04T05:16:38.303Z,6.80
2017-11-04T05:19:05.716Z,6.70
2017-11-04T05:21:33.148Z,6.80
2017-11-04T05:24:00.555Z,6.70
2017-11-04T05:26:28.749Z,6.80
2017-11-04T05:28:56.934Z,6.80
2017-11-04T05:31:24.355Z,6.80
2017-11-04T05:33:52.538Z,6.80
2017-11-04T05:36:20.736Z,6.80
2017-11-04T05:38:48.150Z,6.70
2017-11-04T05:41:15.573Z,6.80
2017-11-04T05:43:42.990Z,6.80
2017-11-04T05:46:10.403Z,6.70
2017-11-04T05:48:39.256Z,6.70
2017-11-04T05:51:06.677Z,6.80
2017-11-04T05:53:34.867Z,6.70
2017-11-04T05:56:07.363Z,6.80
2017-11-04T05:58:34.758Z,6.80
2017-11-04T06:01:03.130Z,6.80
2017-11-04T06:03:30.535Z,6.80
2017-11-04T06:05:58.208Z,6.80
2017-11-04T06:08:25.627Z,6.80
2017-11-04T06:10:53.807Z,6.90
2017-11-04T06:13:21.990Z,6.90
2017-11-04T06:15:49.409Z,6.80
2017-11-04T06:18:16.832Z,6.80
2017-11-04T06:20:44.275Z,6.80
2017-11-04T06:23:11.736Z,6.90
2017-11-04T06:25:40.383Z,6.80
2017-11-04T06:28:09.489Z,6.80
2017-11-04T06:30:37.677Z,6.80
2017-11-04T06:33:05.086Z,6.80
2017-11-04T06:35:32.509Z,6.80
2017-11-04T06:37:59.958Z,6.80
2017-11-04T06:40:27.415Z,6.90
2017-11-04T06:42:54.835Z,6.90
2017-11-04T06:45:23.010Z,7.10
2017-11-04T06:47:51.199Z,7.00
2017-11-04T06:50:18.615Z,7.10
2017-11-04T06:52:46.035Z,7.00
2017-11-04T06:55:13.467Z,7.00
2017-11-04T06:57:40.883Z,7.00
2017-11-04T07:00:08.315Z,7.00
2017-11-04T07:02:35.737Z,7.10
2017-11-04T07:05:03.146Z,7.10
2017-11-04T07:07:30.574Z,7.10
2017-11-04T07:09:57.994Z,7.10
2017-11-04T07:12:25.417Z,7.10
2017-11-04T07:14:52.869Z,7.10
2017-11-04T07:17:20.266Z,7.20
2017-11-04T07:19:48.460Z,7.10
2017-11-04T07:22:15.870Z,7.10
2017-11-04T07:24:44.051Z,7.10
2017-11-04T07:27:12.226Z,7.20
2017-11-04T07:29:41.335Z,7.20
2017-11-04T07:32:08.750Z,7.20
2017-11-04T07:34:36.178Z,7.20
2017-11-04T07:37:03.587Z,7.20
2017-11-04T07:39:31.792Z,7.30
2017-11-04T07:41:59.212Z,7.30
2017-11-04T07:44:26.620Z,7.40
2017-11-04T07:46:54.050Z,7.40
2017-11-04T07:49:21.466Z,7.40
2017-11-04T07:51:48.897Z,7.50
2017-11-04T07:54:16.303Z,7.50
2017-11-04T07:56:44.484Z,7.60
2017-11-04T07:59:11.964Z,7.50
2017-11-04T08:01:39.354Z,7.60
2017-11-04T08:04:06.787Z,7.60
2017-11-04T08:06:34.191Z,7.60
2017-11-04T08:09:02.380Z,7.70
2017-11-04T08:11:30.561Z,7.80
2017-11-04T08:13:57.979Z,7.80
2017-11-04T08:16:25.401Z,7.90
2017-11-04T08:18:52.818Z,8.00
2017-11-04T08:21:21.001Z,8.20
2017-11-04T08:23:48.417Z,8.20
2017-11-04T08:26:15.846Z,8.30
2017-11-04T08:28:43.272Z,8.30
2017-11-04T08:31:10.688Z,8.40
2017-11-04T08:33:38.119Z,8.40
2017-11-04T08:36:05.546Z,8.50
2017-11-04T08:38:33.855Z,8.50
2017-11-04T08:41:01.267Z,8.40
2017-11-04T08:43:28.691Z,8.40
2017-11-04T08:45:56.105Z,8.40
2017-11-04T08:48:23.510Z,8.30
2017-11-04T08:50:51.691Z,8.30
2017-11-04T08:53:19.875Z,8.40
2017-11-04T08:55:48.056Z,8.50
2017-11-04T08:58:15.467Z,8.50
2017-11-04T09:00:43.767Z,8.60
2017-11-04T09:03:12.878Z,8.60
2017-11-04T09:05:40.295Z,8.60
2017-11-04T09:08:07.779Z,8.70
2017-11-04T09:10:35.992Z,8.80
2017-11-04T09:13:03.390Z,8.70
2017-11-04T09:15:30.903Z,8.90
2017-11-04T09:17:58.324Z,8.90
2017-11-04T09:20:26.494Z,9.00
2017-11-04T09:22:54.674Z,9.10
2017-11-04T09:25:22.851Z,9.20
2017-11-04T09:27:50.258Z,9.20
2017-11-04T09:30:17.674Z,9.30
2017-11-04T09:32:45.101Z,9.30
2017-11-04T09:35:12.508Z,9.30
2017-11-04T09:37:39.914Z,9.30
2017-11-04T09:40:08.090Z,9.40
2017-11-04T09:42:36.304Z,9.40
2017-11-04T09:45:03.859Z,9.40
2017-11-04T09:47:31.255Z,9.60
2017-11-04T09:49:58.663Z,9.80
2017-11-04T09:52:26.083Z,9.70
2017-11-04T09:54:54.261Z,10.10
2017-11-04T09:57:22.448Z,10.30
2017-11-04T09:59:49.859Z,10.30
2017-11-04T10:02:17.283Z,10.50
2017-11-04T10:04:44.698Z,10.60
2017-11-04T10:07:12.894Z,10.70
2017-11-04T10:09:40.319Z,10.70
2017-11-04T10:12:07.838Z,10.50
2017-11-04T10:14:35.230Z,10.60
2017-11-04T10:17:02.655Z,10.60
2017-11-04T10:19:30.066Z,10.40
2017-11-04T10:21:57.483Z,10.50
2017-11-04T10:24:24.903Z,10.50
2017-11-04T10:26:52.327Z,10.60
2017-11-04T10:29:20.510Z,10.60
2017-11-04T10:31:47.924Z,10.60
2017-11-04T10:34:15.348Z,10.60
2017-11-04T10:36:42.767Z,10.70
2017-11-04T10:39:10.972Z,10.50
2017-11-04T10:41:38.435Z,10.50
2017-11-04T10:44:05.860Z,10.70
2017-11-04T10:46:33.856Z,11.00
2017-11-04T10:49:01.304Z,11.10
2017-11-04T10:51:28.720Z,11.30
2017-11-04T10:53:56.147Z,11.40
2017-11-04T10:56:23.580Z,11.40
2017-11-04T10:58:51.008Z,11.40
2017-11-04T11:01:19.186Z,11.50
2017-11-04T11:03:46.608Z,11.50
2017-11-04T11:06:14.120Z,11.60
2017-11-04T11:08:41.559Z,12.10
2017-11-04T11:11:09.888Z,12.60
2017-11-04T11:13:37.310Z,12.90
2017-11-04T11:16:04.720Z,12.60
2017-11-04T11:18:32.906Z,12.00
2017-11-04T11:21:01.086Z,11.50
2017-11-04T11:23:29.266Z,11.30
2017-11-04T11:25:56.693Z,11.30
2017-11-04T11:28:24.114Z,11.10
2017-11-04T11:30:51.552Z,11.20
2017-11-04T11:33:18.966Z,11.10
2017-11-04T11:35:46.468Z,11.10
2017-11-04T11:38:13.885Z,11.10
2017-11-04T11:40:42.063Z,11.30
2017-11-04T11:43:10.256Z,11.40
2017-11-04T11:45:37.681Z,11.40
2017-11-04T11:48:05.864Z,11.20
2017-11-04T11:50:34.058Z,11.70
2017-11-04T11:53:01.476Z,11.70
2017-11-04T11:55:29.511Z,11.80
2017-11-04T11:57:56.952Z,11.90
2017-11-04T12:00:24.377Z,12.30
2017-11-04T12:02:52.556Z,12.10
2017-11-04T12:05:20.747Z,11.80
2017-11-04T12:07:48.162Z,11.80
2017-11-04T12:10:15.597Z,11.50
2017-11-04T12:12:43.019Z,11.40
2017-11-04T12:15:10.444Z,11.40
2017-11-04T12:17:38.638Z,11.50
2017-11-04T12:20:06.055Z,11.50
2017-11-04T12:22:33.491Z,11.60
2017-11-04T12:25:00.901Z,11.60
2017-11-04T12:27:28.382Z,11.70
2017-11-04T12:29:55.786Z,11.80
2017-11-04T12:32:23.207Z,11.90
2017-11-04T12:34:50.631Z,11.90
2017-11-04T12:37:18.055Z,11.90
2017-11-04T12:39:46.244Z,12.20
2017-11-04T12:42:14.429Z,12.10
2017-11-04T12:44:41.868Z,12.10
2017-11-04T12:47:10.055Z,12.20
2017-11-04T12:49:37.487Z,12.20
2017-11-04T12:52:05.683Z,12.30
2017-11-04T12:54:33.095Z,12.30
2017-11-04T12:57:00.517Z,12.40
2017-11-04T13:02:26.594Z,12.40
2017-11-04T13:04:54.012Z,12.70
2017-11-04T13:07:21.431Z,12.80
2017-11-04T13:09:49.614Z,12.90
2017-11-04T13:14:53.342Z,12.90
2017-11-04T13:17:20.822Z,12.90
2017-11-04T13:19:49.385Z,12.80
2017-11-04T13:22:16.807Z,12.70
2017-11-04T13:24:44.220Z,12.60
2017-11-04T13:27:11.685Z,12.50
2017-11-04T13:29:39.159Z,12.50
2017-11-04T13:32:06.575Z,12.50
2017-11-04T13:34:34.043Z,12.60
2017-11-04T13:37:01.513Z,12.60
2017-11-04T13:39:28.940Z,12.60
2017-11-04T13:41:56.355Z,12.60
2017-11-04T13:44:23.775Z,12.50
2017-11-04T13:46:51.227Z,12.40
2017-11-04T13:49:20.557Z,13.50
2017-11-04T13:51:47.986Z,13.50
2017-11-04T13:54:15.441Z,14.10
2017-11-04T13:56:42.851Z,13.90
2017-11-04T13:59:11.036Z,13.60
2017-11-04T14:01:39.215Z,13.20
2017-11-04T14:04:07.421Z,13.10
2017-11-04T14:06:34.836Z,13.10
2017-11-04T14:09:03.037Z,12.80
2017-11-04T14:11:30.450Z,12.80
2017-11-04T14:13:57.887Z,12.60
2017-11-04T14:16:25.310Z,12.60
2017-11-04T14:18:52.720Z,12.60
2017-11-04T14:21:20.146Z,12.50
2017-11-04T14:23:47.554Z,12.50
2017-11-04T14:26:15.044Z,12.50
2017-11-04T14:28:42.456Z,12.50
2017-11-04T14:31:10.639Z,12.60
2017-11-04T14:33:38.068Z,12.60
2017-11-04T14:36:05.601Z,12.60
2017-11-04T14:38:33.019Z,12.50
2017-11-04T14:41:00.757Z,12.50
2017-11-04T14:43:28.158Z,12.40
2017-11-04T14:45:55.627Z,12.40
2017-11-04T14:48:23.047Z,12.40
2017-11-04T14:50:50.458Z,12.40
2017-11-04T14:53:17.883Z,12.40
2017-11-04T14:55:45.828Z,12.40
2017-11-04T14:58:13.244Z,12.50
2017-11-04T15:00:40.670Z,12.40
2017-11-04T15:03:08.092Z,12.40
2017-11-04T15:05:36.500Z,12.40
2017-11-04T15:08:03.907Z,12.50
2017-11-04T15:10:32.124Z,12.40
2017-11-04T15:12:59.588Z,12.40
2017-11-04T15:15:26.995Z,12.40
2017-11-04T15:17:55.203Z,12.40
2017-11-04T15:20:22.620Z,12.40
2017-11-04T15:22:51.662Z,12.30
2017-11-04T15:25:19.089Z,12.30
2017-11-04T15:27:47.269Z,12.20
2017-11-04T15:30:14.707Z,12.20
2017-11-04T15:32:42.114Z,12.20
2017-11-04T15:35:09.540Z,12.00
2017-11-04T15:37:36.961Z,12.00
2017-11-04T15:40:04.381Z,11.90
2017-11-04T15:42:31.807Z,11.90
2017-11-04T15:44:59.223Z,11.90
2017-11-04T15:47:26.643Z,11.90
2017-11-04T15:49:54.103Z,11.80
2017-11-04T15:52:21.536Z,11.80
2017-11-04T15:54:49.712Z,11.70
2017-11-04T15:57:17.146Z,11.70
2017-11-04T15:59:45.338Z,11.70
2017-11-04T16:02:13.196Z,11.70
2017-11-04T16:04:40.615Z,11.70
2017-11-04T16:07:08.055Z,11.70
2017-11-04T16:09:35.471Z,11.70
2017-11-04T16:12:02.890Z,11.70
2017-11-04T16:14:31.100Z,11.70
2017-11-04T16:16:58.524Z,11.70
2017-11-04T16:19:26.871Z,11.70
2017-11-04T16:21:54.302Z,11.70
2017-11-04T16:24:22.581Z,11.70
2017-11-04T16:26:50.007Z,11.70
2017-11-04T16:29:18.186Z,11.60
2017-11-04T16:31:45.599Z,11.60
2017-11-04T16:34:13.015Z,11.60
2017-11-04T16:36:40.435Z,11.60
2017-11-04T16:39:08.615Z,11.50
2017-11-04T16:41:36.803Z,11.50
2017-11-04T16:44:04.223Z,11.50
2017-11-04T16:46:31.920Z,11.50
2017-11-04T16:48:59.334Z,11.50
2017-11-04T16:51:26.876Z,11.50
2017-11-04T16:53:54.270Z,11.50
2017-11-04T16:56:22.964Z,11.60
2017-11-04T16:58:52.079Z,11.60
2017-11-04T17:01:19.496Z,11.60
2017-11-04T17:03:47.012Z,11.60
2017-11-04T17:06:14.450Z,11.60
2017-11-04T17:08:41.876Z,11.60
2017-11-04T17:11:10.058Z,11.60
2017-11-04T17:13:37.502Z,11.60
2017-11-04T17:16:05.734Z,11.60
2017-11-04T17:18:33.147Z,11.60
2017-11-04T17:21:01.288Z,11.60
2017-11-04T17:23:28.705Z,11.60
2017-11-04T17:25:56.150Z,11.60
2017-11-04T17:28:23.563Z,11.50
2017-11-04T17:30:50.986Z,11.50
2017-11-04T17:33:18.404Z,11.50
2017-11-04T17:35:45.827Z,11.50
2017-11-04T17:38:13.270Z,11.50
2017-11-04T17:40:40.680Z,11.50
2017-11-04T17:43:08.095Z,11.50
2017-11-04T17:45:35.518Z,11.50
2017-11-04T17:48:02.957Z,11.50
2017-11-04T17:50:30.372Z,11.60
2017-11-04T17:52:58.559Z,11.50
2017-11-04T17:55:26.776Z,11.50
2017-11-04T17:57:54.218Z,11.50
2017-11-04T18:00:21.633Z,11.50
2017-11-04T18:02:49.826Z,11.50
2017-11-04T18:05:17.310Z,11.50
2017-11-04T18:07:44.773Z,11.50
2017-11-04T18:10:12.179Z,11.60
2017-11-04T18:12:40.373Z,11.50
2017-11-04T18:15:07.811Z,11.50
2017-11-04T18:17:36.025Z,11.50
2017-11-04T18:20:03.438Z,11.50
2017-11-04T18:22:31.632Z,11.50
2017-11-04T18:24:59.058Z,11.50
2017-11-04T18:27:26.547Z,11.50
2017-11-04T18:29:53.963Z,11.50
2017-11-04T18:32:21.391Z,11.60
2017-11-04T18:34:48.815Z,11.70
2017-11-04T18:37:16.474Z,11.80
2017-11-04T18:39:43.891Z,11.80
2017-11-04T18:42:11.322Z,11.90
2017-11-04T18:44:38.736Z,11.90
2017-11-04T18:47:06.155Z,12.00
2017-11-04T18:49:33.579Z,12.10
2017-11-04T18:52:00.991Z,12.10
2017-11-04T18:54:29.173Z,12.10
2017-11-04T18:56:57.379Z,12.20
2017-11-04T18:59:24.796Z,12.20
2017-11-04T19:01:52.992Z,12.20
2017-11-04T19:04:20.404Z,12.20
2017-11-04T19:06:48.339Z,12.20
2017-11-04T19:09:15.802Z,12.20
2017-11-04T19:11:43.240Z,12.20
2017-11-04T19:14:10.671Z,12.20
2017-11-04T19:16:38.846Z,12.30
2017-11-04T19:19:06.270Z,12.30
2017-11-04T19:21:34.451Z,12.40
2017-11-04T19:24:03.393Z,12.40
2017-11-04T19:26:30.799Z,12.40
2017-11-04T19:28:58.215Z,12.50
2017-11-04T19:31:25.643Z,12.50
2017-11-04T19:33:53.062Z,12.50
2017-11-04T19:36:20.523Z,12.50
2017-11-04T19:38:48.715Z,12.60
2017-11-04T19:41:16.933Z,12.60
2017-11-04T19:43:44.371Z,12.50
2017-11-04T19:46:11.786Z,12.60
2017-11-04T19:48:39.980Z,12.60
2017-11-04T19:51:07.398Z,12.60
2017-11-04T19:53:34.815Z,12.70
2017-11-04T19:56:02.271Z,12.70
2017-11-04T19:58:29.688Z,12.70
2017-11-04T20:00:57.863Z,12.80
2017-11-04T20:03:26.044Z,12.80
2017-11-04T20:05:55.151Z,12.80
2017-11-04T20:08:22.570Z,12.80
2017-11-04T20:10:49.990Z,12.90
2017-11-04T20:13:17.414Z,12.90
2017-11-04T20:15:44.839Z,13.00
2017-11-04T20:18:12.254Z,13.00
2017-11-04T20:20:39.684Z,13.00
2017-11-04T20:23:07.103Z,13.00
2017-11-04T20:25:34.619Z,13.00
2017-11-04T20:28:02.039Z,13.00
2017-11-04T20:30:30.226Z,13.00
2017-11-04T20:32:58.287Z,13.00
2017-11-04T20:35:26.475Z,13.00
2017-11-04T20:37:53.894Z,13.00
2017-11-04T20:40:21.303Z,13.10
2017-11-04T20:42:49.167Z,13.10
2017-11-04T20:45:16.579Z,13.10
2017-11-04T20:47:44.751Z,13.20
2017-11-04T20:50:12.941Z,13.20
2017-11-04T20:52:41.126Z,13.20
2017-11-04T20:55:08.543Z,13.20
2017-11-04T20:57:36.672Z,13.20
2017-11-04T21:00:04.112Z,13.20
2017-11-04T21:02:31.530Z,13.10
2017-11-04T21:04:58.959Z,13.10
2017-11-04T21:07:26.379Z,13.10
2017-11-04T21:09:53.796Z,13.10
2017-11-04T21:12:21.306Z,13.10
2017-11-04T21:14:48.764Z,13.10
2017-11-04T21:17:16.185Z,13.00
2017-11-04T21:19:44.419Z,13.00
2017-11-04T21:22:11.855Z,13.00
2017-11-04T21:24:39.271Z,13.00
2017-11-04T21:27:07.463Z,13.00
2017-11-04T21:29:34.862Z,13.00
2017-11-04T21:32:02.307Z,13.00
2017-11-04T21:34:29.732Z,13.00
2017-11-04T21:36:57.147Z,13.10
2017-11-04T21:39:24.566Z,13.10
2017-11-04T21:41:51.983Z,13.20
2017-11-04T21:44:20.167Z,13.30
2017-11-04T21:46:47.592Z,13.20
2017-11-04T21:49:15.000Z,13.30
2017-11-04T21:51:42.457Z,13.20
2017-11-04T21:54:09.868Z,13.20
2017-11-04T21:56:38.064Z,13.20
2017-11-04T21:59:05.492Z,13.20
2017-11-04T22:01:33.319Z,13.30
2017-11-04T22:04:00.730Z,13.30
2017-11-04T22:06:28.923Z,13.30
2017-11-04T22:08:57.699Z,13.30
2017-11-04T22:11:27.346Z,13.30
2017-11-04T22:13:54.774Z,13.30
2017-11-04T22:16:22.200Z,13.30
2017-11-04T22:18:50.394Z,13.30
2017-11-04T22:21:19.409Z,13.30
2017-11-04T22:23:46.831Z,13.30
2017-11-04T22:26:15.020Z,13.30
2017-11-04T22:28:42.443Z,13.30
2017-11-04T22:31:09.860Z,13.30
2017-11-04T22:33:37.279Z,13.40
2017-11-04T22:36:05.451Z,13.40
2017-11-04T22:38:33.656Z,13.40
2017-11-04T22:41:01.937Z,13.40
2017-11-04T22:43:29.352Z,13.40
2017-11-04T22:45:58.140Z,13.40
2017-11-04T22:48:27.282Z,13.50
2017-11-04T22:50:54.740Z,13.50
2017-11-04T22:53:22.139Z,13.50
2017-11-04T22:55:50.327Z,13.60
2017-11-04T22:58:18.529Z,13.60
2017-11-04T23:00:45.949Z,13.50
2017-11-04T23:03:14.134Z,13.60
2017-11-04T23:05:42.351Z,13.60
2017-11-04T23:08:09.768Z,13.60
2017-11-04T23:10:37.187Z,13.60
2017-11-04T23:13:04.604Z,13.60
2017-11-04T23:15:32.010Z,13.60
2017-11-04T23:18:00.218Z,13.60
2017-11-04T23:20:28.586Z,13.60
2017-11-04T23:22:56.020Z,13.60
2017-11-04T23:25:24.935Z,13.50
2017-11-04T23:27:52.363Z,13.50
2017-11-04T23:30:19.774Z,13.50
2017-11-04T23:32:47.186Z,13.50
2017-11-04T23:35:15.379Z,13.40
2017-11-04T23:37:42.844Z,13.40
2017-11-04T23:40:10.259Z,13.40
2017-11-04T23:42:37.675Z,13.40
2017-11-04T23:45:05.097Z,13.30
2017-11-04T23:47:32.519Z,13.30
2017-11-04T23:49:59.939Z,13.20
2017-11-04T23:52:28.287Z,13.20
2017-11-04T23:54:56.482Z,13.10
2017-11-04T23:57:23.935Z,13.10
2017-11-04T23:59:51.361Z,13.10
